Time;durP1;ratioP1;P1;durP2;ratioP2;P2;SDS_P1;SDS_P2;PMS_P1;PMS_P2;Temp;Humidity;BMP_temperature;BMP_pressure;BME280_temperature;BME280_humidity;BME280_pressure;Samples;Min_cycle;Max_cycle;Signal;HPM_P1;HPM_P2
2021/11/09 00:01:41;;;;;;;13.73;7.20;;;23.60;96.40;;;;;;4198660;28;20552;-74
2021/11/09 00:03:52;;;;;;;16.75;8.48;;;23.70;96.40;;;;;;4226289;28;20079;-74
2021/11/09 00:08:11;;;;;;;38.67;23.50;;;23.90;96.30;;;;;;4212531;28;20072;-75
2021/11/09 00:10:16;;;;;;;36.13;21.15;;;24.00;96.10;;;;;;4221322;28;20142;-74
2021/11/09 00:12:21;;;;;;;32.00;17.83;;;24.10;96.00;;;;;;4220607;28;20039;-73
2021/11/09 00:14:25;;;;;;;13.30;7.85;;;24.10;95.90;;;;;;4200274;28;20494;-74
2021/11/09 00:16:31;;;;;;;12.88;6.70;;;23.80;96.10;;;;;;4201478;28;20055;-75
2021/11/09 00:18:36;;;;;;;10.52;5.60;;;23.70;96.40;;;;;;4216727;28;20159;-75
2021/11/09 00:20:41;;;;;;;12.40;5.55;;;23.70;96.10;;;;;;4196102;28;20117;-74
2021/11/09 00:22:46;;;;;;;9.60;5.13;;;23.80;95.90;;;;;;4207187;28;20051;-73
2021/11/09 00:24:52;;;;;;;9.70;5.65;;;23.90;95.50;;;;;;4224331;28;20123;-74
2021/11/09 00:26:57;;;;;;;12.35;5.88;;;24.00;95.60;;;;;;4213244;28;20126;-75
2021/11/09 00:29:02;;;;;;;9.50;4.95;;;24.00;95.60;;;;;;4219466;28;20426;-74
2021/11/09 00:31:07;;;;;;;8.35;5.53;;;24.00;96.00;;;;;;4193288;28;20507;-74
2021/11/09 00:33:12;;;;;;;9.63;5.90;;;24.10;95.80;;;;;;4217802;28;20467;-74
2021/11/09 00:35:29;;;;;;;9.65;4.65;;;24.10;95.50;;;;;;4225128;28;20082;-75
2021/11/09 00:37:33;;;;;;;8.35;3.95;;;24.10;95.10;;;;;;4219272;28;20048;-73
2021/11/09 00:39:39;;;;;;;5.50;3.80;;;24.20;94.90;;;;;;4219184;28;20044;-72
2021/11/09 00:41:45;;;;;;;8.02;4.53;;;24.10;94.60;;;;;;4208971;28;20035;-74
2021/11/09 00:43:50;;;;;;;8.80;4.63;;;24.20;94.80;;;;;;4216149;28;20044;-73
2021/11/09 00:45:57;;;;;;;6.70;4.00;;;24.20;94.80;;;;;;4222318;28;20051;-73
2021/11/09 00:48:02;;;;;;;10.18;4.70;;;24.10;94.20;;;;;;4221233;28;20052;-73
2021/11/09 00:50:10;;;;;;;5.25;4.00;;;23.80;94.90;;;;;;4197351;28;20051;-73
2021/11/09 00:52:15;;;;;;;7.25;5.10;;;23.70;95.10;;;;;;4190782;28;20036;-74
2021/11/09 00:54:19;;;;;;;7.93;5.05;;;24.00;95.30;;;;;;4219532;28;20051;-73
2021/11/09 00:56:24;;;;;;;8.82;5.20;;;24.30;94.90;;;;;;4217842;28;20052;-72
2021/11/09 00:58:29;;;;;;;6.90;4.40;;;24.40;94.80;;;;;;4219648;28;20047;-73
2021/11/09 01:00:33;;;;;;;8.05;4.85;;;24.30;94.90;;;;;;4214259;28;20434;-72
2021/11/09 01:02:40;;;;;;;8.00;3.95;;;24.30;95.30;;;;;;4179294;28;20036;-71
2021/11/09 01:04:44;;;;;;;7.78;3.83;;;24.40;94.50;;;;;;4216932;28;20043;-73
2021/11/09 01:06:49;;;;;;;11.95;3.85;;;24.50;94.20;;;;;;4216843;28;20455;-73
2021/11/09 01:08:54;;;;;;;8.27;3.05;;;24.60;93.60;;;;;;4221009;28;20089;-72
2021/11/09 01:11:00;;;;;;;5.85;2.70;;;24.40;93.00;;;;;;4210784;28;20047;-74
2021/11/09 01:13:05;;;;;;;9.27;2.58;;;24.40;92.40;;;;;;4215323;28;20089;-73
2021/11/09 01:15:10;;;;;;;3.25;2.08;;;24.50;92.50;;;;;;4196400;28;20139;-73
2021/11/09 01:17:15;;;;;;;5.35;2.30;;;24.70;92.10;;;;;;4197532;28;20426;-74
2021/11/09 01:19:20;;;;;;;3.60;2.10;;;24.80;91.10;;;;;;4204748;28;20485;-73
2021/11/09 01:21:25;;;;;;;3.35;2.25;;;24.80;91.40;;;;;;4210384;28;20105;-73
2021/11/09 01:23:29;;;;;;;9.30;6.57;;;24.90;91.40;;;;;;4201403;28;20050;-74
2021/11/09 01:25:35;;;;;;;7.93;4.40;;;25.10;91.50;;;;;;4217729;28;20051;-75
2021/11/09 01:27:39;;;;;;;7.55;3.80;;;25.10;91.30;;;;;;4208337;28;20043;-73
2021/11/09 01:29:44;;;;;;;3.33;2.47;;;25.20;91.20;;;;;;4200174;28;20059;-74
2021/11/09 01:31:53;;;;;;;7.95;2.25;;;25.00;91.20;;;;;;4205767;28;20113;-73
2021/11/09 01:33:59;;;;;;;3.80;2.17;;;25.00;91.30;;;;;;4218582;28;20057;-74
2021/11/09 01:36:05;;;;;;;4.72;2.75;;;25.00;91.30;;;;;;4218358;28;20562;-74
2021/11/09 01:38:10;;;;;;;3.08;2.33;;;25.20;91.00;;;;;;4200050;28;20048;-74
2021/11/09 01:40:15;;;;;;;10.95;5.15;;;25.40;91.00;;;;;;4219932;28;20110;-75
2021/11/09 01:42:21;;;;;;;5.47;3.83;;;25.40;91.10;;;;;;4214350;28;20040;-74
2021/11/09 01:44:25;;;;;;;4.35;2.40;;;25.60;90.90;;;;;;4200882;28;20058;-75
2021/11/09 01:46:30;;;;;;;3.88;2.40;;;25.60;90.60;;;;;;4201250;28;20435;-75
2021/11/09 01:48:34;;;;;;;4.53;2.88;;;25.60;90.60;;;;;;4219840;28;20051;-74
2021/11/09 01:50:49;;;;;;;3.58;2.65;;;25.70;90.70;;;;;;4215456;28;20051;-74
2021/11/09 01:52:55;;;;;;;7.30;3.00;;;25.70;90.30;;;;;;4216167;28;20397;-74
2021/11/09 01:55:00;;;;;;;9.63;2.67;;;25.70;89.80;;;;;;4188195;28;20055;-73
2021/11/09 01:57:05;;;;;;;9.65;2.88;;;25.70;90.20;;;;;;4199283;28;20071;-74
2021/11/09 01:59:10;;;;;;;4.65;2.80;;;25.70;90.20;;;;;;4220082;28;20059;-74
2021/11/09 02:01:16;;;;;;;4.13;2.63;;;25.90;90.40;;;;;;4211401;28;20054;-74
2021/11/09 02:03:21;;;;;;;13.13;3.00;;;26.00;90.60;;;;;;4182964;28;20094;-75
2021/11/09 02:05:28;;;;;;;6.63;2.50;;;26.00;90.30;;;;;;4199527;28;20556;-75
2021/11/09 02:07:32;;;;;;;7.43;3.00;;;26.00;90.30;;;;;;4221793;28;20073;-73
2021/11/09 02:09:37;;;;;;;27.45;19.27;;;25.90;90.00;;;;;;4220027;28;20131;-74
2021/11/09 02:11:42;;;;;;;24.85;13.70;;;25.70;89.10;;;;;;4212707;28;20047;-74
2021/11/09 02:13:46;;;;;;;32.05;17.95;;;25.80;89.50;;;;;;4217368;28;20432;-74
2021/11/09 02:15:51;;;;;;;101.88;60.25;;;25.80;88.80;;;;;;4219230;28;20517;-75
2021/11/09 02:17:56;;;;;;;60.28;33.50;;;25.60;89.80;;;;;;4221016;28;20521;-74
2021/11/09 02:20:01;;;;;;;41.30;23.80;;;25.70;90.00;;;;;;4213653;28;20047;-69
2021/11/09 02:22:06;;;;;;;42.30;20.70;;;25.80;89.90;;;;;;4204278;28;20065;-72
2021/11/09 02:24:10;;;;;;;187.60;91.53;;;25.90;89.60;;;;;;4217328;28;20055;-74
2021/11/09 02:26:18;;;;;;;82.72;38.47;;;25.80;89.30;;;;;;4215631;28;20048;-74
2021/11/09 02:28:23;;;;;;;39.30;18.88;;;25.90;88.60;;;;;;4198460;28;20082;-75
2021/11/09 02:30:28;;;;;;;17.58;9.65;;;26.00;88.80;;;;;;4212578;28;20051;-73
2021/11/09 02:32:34;;;;;;;17.08;8.60;;;26.00;88.80;;;;;;4215415;28;20081;-74
2021/11/09 02:34:38;;;;;;;15.93;6.90;;;26.10;89.00;;;;;;4195234;28;20077;-74
2021/11/09 02:36:43;;;;;;;12.77;5.10;;;26.10;88.20;;;;;;4198850;28;20068;-74
2021/11/09 02:38:47;;;;;;;6.60;4.10;;;26.00;89.40;;;;;;4219742;28;20036;-74
2021/11/09 02:40:52;;;;;;;9.38;4.50;;;26.00;89.10;;;;;;4210625;28;20040;-73
2021/11/09 02:42:59;;;;;;;5.93;3.95;;;26.10;89.10;;;;;;4197479;28;20036;-74
2021/11/09 02:45:12;;;;;;;7.75;4.28;;;26.00;86.90;;;;;;4215366;28;20137;-74
2021/11/09 02:47:17;;;;;;;12.37;4.60;;;26.00;87.30;;;;;;4198846;28;20036;-73
2021/11/09 02:49:29;;;;;;;7.25;3.55;;;26.10;87.80;;;;;;4219336;28;20293;-73
2021/11/09 02:51:39;;;;;;;6.25;3.40;;;26.20;86.80;;;;;;4213588;28;20040;-74
2021/11/09 02:53:47;;;;;;;6.38;2.90;;;26.20;85.70;;;;;;4213998;28;20048;-74
2021/11/09 02:56:00;;;;;;;12.45;5.20;;;26.20;86.40;;;;;;4199224;28;20137;-73
2021/11/09 03:02:46;;;;;;;6.80;3.40;;;26.10;87.00;;;;;;4212832;28;20134;-73
2021/11/09 03:11:53;;;;;;;4.85;3.20;;;26.50;86.20;;;;;;4214032;28;20040;-74
2021/11/09 03:13:58;;;;;;;3.15;2.40;;;26.50;85.30;;;;;;4224023;28;20047;-73
2021/11/09 03:16:08;;;;;;;4.43;2.63;;;26.50;85.50;;;;;;4201542;28;20371;-74
2021/11/09 03:18:15;;;;;;;4.90;3.28;;;26.40;86.00;;;;;;4221590;28;20044;-73
2021/11/09 03:20:28;;;;;;;9.05;3.00;;;26.50;85.80;;;;;;4216548;28;20503;-72
2021/11/09 03:44:11;;;;;;;6.68;3.17;;;26.90;85.30;;;;;;4214472;28;20044;-73
2021/11/09 03:45:32;;;;;;;3.63;2.72;;;27.10;85.60;;;;;;4219090;28;20143;-73
2021/11/09 03:47:40;;;;;;;5.30;3.25;;;27.20;85.40;;;;;;4223210;28;20040;-73
2021/11/09 03:49:46;;;;;;;4.28;2.90;;;27.20;85.20;;;;;;4199692;28;20518;-73
2021/11/09 03:51:51;;;;;;;4.68;2.70;;;27.20;85.10;;;;;;4186562;28;20048;-73
2021/11/09 03:53:59;;;;;;;2.90;2.60;;;27.30;85.40;;;;;;4195981;28;20059;-73
2021/11/09 03:56:18;;;;;;;5.28;2.58;;;27.20;85.70;;;;;;4203545;28;20042;-75
2021/11/09 03:58:27;;;;;;;3.70;2.50;;;27.10;84.40;;;;;;4226913;28;20070;-71
2021/11/09 04:00:46;;;;;;;10.30;3.05;;;27.10;84.90;;;;;;4195585;28;20045;-73
2021/11/09 04:03:00;;;;;;;4.88;2.80;;;27.20;85.40;;;;;;4202150;28;20527;-71
2021/11/09 04:05:10;;;;;;;6.50;2.70;;;27.20;84.50;;;;;;4218941;28;20067;-70
2021/11/09 04:12:16;;;;;;;4.20;2.70;;;26.80;85.00;;;;;;4217647;28;20105;-70
2021/11/09 04:16:47;;;;;;;4.72;2.55;;;27.00;85.80;;;;;;4201386;28;20052;-69
2021/11/09 04:25:42;;;;;;;4.22;2.40;;;27.50;84.80;;;;;;4222150;28;20421;-71
2021/11/09 04:32:32;;;;;;;5.35;2.58;;;27.70;83.50;;;;;;4216596;28;20521;-71
2021/11/09 04:48:36;;;;;;;4.88;3.17;;;28.00;82.80;;;;;;4217941;28;20040;-72
2021/11/09 05:08:50;;;;;;;5.22;2.50;;;27.90;82.70;;;;;;4218914;28;20444;-73
2021/11/09 05:10:57;;;;;;;5.97;2.63;;;28.00;83.00;;;;;;4215933;28;20056;-73
2021/11/09 05:13:02;;;;;;;4.57;2.70;;;28.10;82.90;;;;;;4218923;28;20309;-71
2021/11/09 05:15:07;;;;;;;3.83;2.72;;;28.20;83.10;;;;;;4217719;28;20039;-71
2021/11/09 05:17:11;;;;;;;3.97;2.40;;;28.10;81.50;;;;;;4219632;28;20038;-71
2021/11/09 05:19:16;;;;;;;3.55;2.63;;;28.20;82.50;;;;;;4220204;28;20434;-72
2021/11/09 05:21:20;;;;;;;3.55;2.55;;;28.20;81.70;;;;;;4220571;28;20031;-73
2021/11/09 05:23:25;;;;;;;7.95;2.60;;;28.20;82.30;;;;;;4220294;28;20505;-72
2021/11/09 05:25:30;;;;;;;5.60;2.38;;;28.10;81.40;;;;;;4218597;28;20494;-74
2021/11/09 05:27:34;;;;;;;5.78;2.47;;;28.10;82.40;;;;;;4224195;28;20052;-72
2021/11/09 05:29:39;;;;;;;5.28;2.47;;;28.00;82.50;;;;;;4221756;28;20089;-74
2021/11/09 05:31:44;;;;;;;6.65;2.60;;;28.10;82.30;;;;;;4221464;28;20044;-72
2021/11/09 05:33:52;;;;;;;3.83;2.28;;;28.10;81.70;;;;;;4216767;28;20071;-71
2021/11/09 05:35:58;;;;;;;3.50;2.80;;;28.20;82.60;;;;;;4199195;28;20632;-73
2021/11/09 05:38:04;;;;;;;3.85;2.40;;;28.30;82.60;;;;;;4220449;28;20062;-74
2021/11/09 05:40:09;;;;;;;3.85;2.28;;;28.10;81.00;;;;;;4207472;28;20048;-73
2021/11/09 05:42:18;;;;;;;5.97;2.53;;;28.20;81.80;;;;;;4228732;28;20028;-73
2021/11/09 05:44:23;;;;;;;3.92;2.53;;;28.30;81.20;;;;;;4220200;28;20044;-74
2021/11/09 05:46:27;;;;;;;3.97;2.67;;;28.20;81.80;;;;;;4198670;28;20056;-73
2021/11/09 05:48:32;;;;;;;4.60;2.80;;;28.00;82.30;;;;;;4216714;28;20467;-73
2021/11/09 05:50:37;;;;;;;4.28;2.60;;;28.10;82.60;;;;;;4220442;28;20081;-74
2021/11/09 05:52:41;;;;;;;3.80;2.50;;;28.10;81.90;;;;;;4217318;28;20059;-72
2021/11/09 05:54:46;;;;;;;4.82;2.80;;;28.20;82.00;;;;;;4212954;28;20520;-72
2021/11/09 05:56:50;;;;;;;4.30;2.65;;;28.20;81.90;;;;;;4224659;28;20048;-72
2021/11/09 05:58:55;;;;;;;5.25;2.30;;;28.30;81.50;;;;;;4206281;28;20052;-71
2021/11/09 06:00:59;;;;;;;4.90;2.65;;;28.50;81.30;;;;;;4217872;28;20439;-72
2021/11/09 06:03:05;;;;;;;3.92;2.65;;;28.50;82.20;;;;;;4219299;28;20031;-70
2021/11/09 06:05:09;;;;;;;4.10;2.33;;;28.60;81.70;;;;;;4218449;28;20159;-71
2021/11/09 06:07:14;;;;;;;5.13;2.47;;;28.60;82.00;;;;;;4219457;28;20501;-70
2021/11/09 06:09:18;;;;;;;4.15;2.33;;;28.60;82.40;;;;;;4220444;28;20052;-70
2021/11/09 06:11:22;;;;;;;3.67;2.42;;;28.70;81.50;;;;;;4213426;28;20043;-74
2021/11/09 06:13:27;;;;;;;3.30;2.95;;;28.80;81.10;;;;;;4221984;28;20104;-73
2021/11/09 06:15:31;;;;;;;10.27;7.13;;;28.90;81.20;;;;;;4211797;28;20055;-73
2021/11/09 06:17:35;;;;;;;6.30;4.25;;;29.00;81.00;;;;;;4213908;28;20067;-72
2021/11/09 06:19:40;;;;;;;5.75;3.38;;;29.10;81.00;;;;;;4217035;28;20134;-73
2021/11/09 06:21:44;;;;;;;5.13;4.30;;;29.10;80.70;;;;;;4205972;28;20131;-74
2021/11/09 06:23:50;;;;;;;6.45;3.30;;;29.20;80.50;;;;;;4221050;28;20089;-74
2021/11/09 06:25:54;;;;;;;7.40;2.53;;;29.10;80.50;;;;;;4222816;28;20123;-75
2021/11/09 06:27:59;;;;;;;7.00;3.08;;;29.00;80.60;;;;;;4203079;28;20055;-74
2021/11/09 06:30:04;;;;;;;4.45;2.40;;;29.10;80.70;;;;;;4222028;28;20031;-75
2021/11/09 06:32:08;;;;;;;3.05;2.42;;;29.10;79.80;;;;;;4185757;28;20120;-75
2021/11/09 06:34:13;;;;;;;3.17;2.45;;;29.10;80.50;;;;;;4204647;28;20384;-76
2021/11/09 06:36:17;;;;;;;4.40;2.58;;;29.10;80.10;;;;;;4206924;28;20126;-75
2021/11/09 06:38:22;;;;;;;4.95;2.80;;;29.10;81.90;;;;;;4216899;28;20047;-74
2021/11/09 06:40:27;;;;;;;5.82;2.90;;;29.20;81.20;;;;;;4222920;28;20117;-73
2021/11/09 06:42:32;;;;;;;7.85;3.08;;;29.30;80.40;;;;;;4218755;28;20040;-74
2021/11/09 06:44:37;;;;;;;2.95;2.47;;;29.30;80.40;;;;;;4203468;28;20051;-75
2021/11/09 06:46:41;;;;;;;4.90;2.88;;;29.30;80.60;;;;;;4220615;28;20551;-76
2021/11/09 06:48:47;;;;;;;5.80;3.00;;;29.30;80.90;;;;;;4221861;28;20047;-74
2021/11/09 06:50:52;;;;;;;4.38;2.22;;;29.30;80.70;;;;;;4202747;28;20056;-74
2021/11/09 06:52:57;;;;;;;4.50;2.38;;;29.10;80.30;;;;;;4202900;28;20059;-74
2021/11/09 06:55:02;;;;;;;6.53;2.40;;;28.90;80.60;;;;;;4221776;28;20548;-74
2021/11/09 06:57:16;;;;;;;4.65;2.88;;;29.00;81.60;;;;;;4225327;28;20043;-74
2021/11/09 06:59:21;;;;;;;5.78;2.85;;;28.90;79.90;;;;;;4219924;28;20513;-74
2021/11/09 07:01:28;;;;;;;4.47;2.35;;;28.90;80.50;;;;;;4184378;28;20095;-73
2021/11/09 07:03:34;;;;;;;3.95;2.47;;;28.90;80.50;;;;;;4206581;28;20052;-74
2021/11/09 07:05:38;;;;;;;3.67;2.60;;;28.90;80.70;;;;;;4204489;28;20044;-73
2021/11/09 07:07:42;;;;;;;7.07;3.10;;;29.00;81.00;;;;;;4201354;28;20051;-73
2021/11/09 07:09:46;;;;;;;3.40;2.47;;;29.00;80.60;;;;;;4201326;28;20140;-73
2021/11/09 07:11:52;;;;;;;8.77;3.20;;;29.00;79.90;;;;;;4201055;28;20048;-74
2021/11/09 07:13:56;;;;;;;4.72;3.10;;;28.90;80.50;;;;;;4204948;28;20050;-74
2021/11/09 07:16:02;;;;;;;3.58;2.67;;;29.00;80.40;;;;;;4204794;28;20597;-74
2021/11/09 07:18:08;;;;;;;4.35;3.00;;;29.10;80.30;;;;;;4196646;28;20044;-73
2021/11/09 07:20:17;;;;;;;7.97;3.20;;;29.10;80.40;;;;;;4190580;28;20523;-74
2021/11/09 07:22:23;;;;;;;6.20;2.80;;;29.10;80.80;;;;;;4200792;28;20044;-74
2021/11/09 07:24:30;;;;;;;4.18;2.90;;;29.10;80.80;;;;;;4189433;28;20047;-75
2021/11/09 07:26:35;;;;;;;4.90;3.10;;;29.10;80.40;;;;;;4200028;28;20501;-73
2021/11/09 07:28:41;;;;;;;5.18;3.03;;;29.10;80.60;;;;;;4175035;28;20075;-74
2021/11/09 07:30:57;;;;;;;3.72;2.80;;;29.10;80.90;;;;;;4198905;28;20060;-74
2021/11/09 07:33:02;;;;;;;3.88;2.80;;;29.20;80.80;;;;;;4188344;28;20075;-73
2021/11/09 07:35:08;;;;;;;6.70;2.95;;;29.20;80.60;;;;;;4200364;28;20160;-74
2021/11/09 07:37:13;;;;;;;6.35;3.13;;;29.20;80.70;;;;;;4188277;28;20124;-72
2021/11/09 07:39:20;;;;;;;17.88;3.38;;;29.20;80.70;;;;;;4203893;28;20519;-73
2021/11/09 07:41:24;;;;;;;6.95;3.28;;;29.20;80.50;;;;;;4191839;28;20090;-74
2021/11/09 07:43:29;;;;;;;6.90;3.28;;;29.20;80.60;;;;;;4186513;28;20126;-73
2021/11/09 07:45:35;;;;;;;5.25;3.05;;;29.20;80.60;;;;;;4197479;28;20139;-74
2021/11/09 07:47:40;;;;;;;4.13;3.08;;;29.20;80.80;;;;;;4199014;28;20105;-72
2021/11/09 07:49:44;;;;;;;5.13;3.17;;;29.30;80.80;;;;;;4203449;28;20471;-73
2021/11/09 07:51:49;;;;;;;5.55;3.63;;;29.30;80.80;;;;;;4192836;28;20052;-73
2021/11/09 07:53:57;;;;;;;5.25;2.88;;;29.30;80.60;;;;;;4190713;28;20052;-73
2021/11/09 07:58:18;;;;;;;6.68;3.22;;;29.20;80.20;;;;;;4204066;28;20044;-74
2021/11/09 08:02:33;;;;;;;3.50;2.90;;;29.00;80.20;;;;;;4189188;28;20123;-73
2021/11/09 08:07:06;;;;;;;6.50;3.20;;;29.10;80.40;;;;;;4189705;28;20554;-73
2021/11/09 08:11:28;;;;;;;5.63;3.10;;;29.20;81.40;;;;;;4203635;28;20051;-74
2021/11/09 08:13:33;;;;;;;6.00;2.85;;;29.20;80.80;;;;;;4187918;28;20072;-73
2021/11/09 08:15:38;;;;;;;5.75;2.65;;;29.20;80.90;;;;;;4204467;28;20871;-74
2021/11/09 08:17:43;;;;;;;5.07;2.47;;;29.10;80.30;;;;;;4205221;28;20024;-74
2021/11/09 08:19:47;;;;;;;4.43;2.78;;;29.00;80.40;;;;;;4203491;28;20056;-75
2021/11/09 08:21:54;;;;;;;5.00;2.75;;;29.00;80.50;;;;;;4208170;28;20414;-75
2021/11/09 08:23:58;;;;;;;3.50;2.30;;;29.00;80.20;;;;;;4188100;28;20102;-75
2021/11/09 08:26:03;;;;;;;6.40;2.85;;;29.10;80.40;;;;;;4203019;28;20044;-76
2021/11/09 08:28:09;;;;;;;8.30;2.80;;;29.20;80.70;;;;;;4208081;28;20109;-75
2021/11/09 08:30:13;;;;;;;6.90;2.97;;;29.30;80.60;;;;;;4204657;28;20047;-74
2021/11/09 08:32:20;;;;;;;5.38;3.08;;;29.20;80.60;;;;;;4188159;28;20680;-74
2021/11/09 08:34:27;;;;;;;7.30;3.38;;;29.30;80.80;;;;;;4184968;28;20060;-75
2021/11/09 08:36:32;;;;;;;5.70;2.80;;;29.30;80.70;;;;;;4201785;28;20135;-75
2021/11/09 08:38:38;;;;;;;5.25;3.00;;;29.30;80.90;;;;;;4205092;28;20793;-76
2021/11/09 08:40:44;;;;;;;2.80;2.47;;;29.20;80.70;;;;;;4203476;28;20051;-76
2021/11/09 08:42:58;;;;;;;4.63;3.03;;;29.20;80.20;;;;;;4183528;28;20051;-74
2021/11/09 08:45:11;;;;;;;3.92;2.78;;;29.10;79.90;;;;;;4205582;28;20043;-76
2021/11/09 08:47:19;;;;;;;4.70;3.03;;;29.10;81.80;;;;;;4187659;28;20040;-75
2021/11/09 08:49:27;;;;;;;7.43;2.90;;;29.00;81.20;;;;;;4203069;28;20051;-75
2021/11/09 08:51:32;;;;;;;6.03;3.05;;;29.10;81.40;;;;;;4206352;28;20036;-73
2021/11/09 08:53:43;;;;;;;8.20;2.90;;;29.10;81.40;;;;;;4203580;28;20473;-73
2021/11/09 08:58:16;;;;;;;7.32;3.33;;;29.20;81.60;;;;;;4185950;28;20449;-73
2021/11/09 09:04:51;;;;;;;7.30;3.83;;;29.10;80.70;;;;;;4198917;28;20068;-75
2021/11/09 09:06:59;;;;;;;6.28;3.00;;;29.00;80.70;;;;;;4202618;28;20132;-73
2021/11/09 09:09:04;;;;;;;10.73;2.90;;;28.90;81.00;;;;;;4202725;28;20565;-74
2021/11/09 09:11:08;;;;;;;4.88;3.08;;;28.90;81.20;;;;;;4204906;28;20068;-74
2021/11/09 09:13:13;;;;;;;5.65;2.95;;;28.90;81.60;;;;;;4205987;28;20044;-75
2021/11/09 09:15:18;;;;;;;5.63;2.65;;;28.90;81.40;;;;;;4200621;28;20155;-76
2021/11/09 09:17:24;;;;;;;5.40;2.80;;;29.00;81.70;;;;;;4184925;28;20033;-75
2021/11/09 09:19:35;;;;;;;7.35;3.08;;;29.00;81.50;;;;;;4181811;28;20045;-76
2021/11/09 09:23:57;;;;;;;6.90;2.85;;;29.00;81.40;;;;;;4204710;28;20530;-74
2021/11/09 09:26:14;;;;;;;5.07;2.85;;;29.00;81.50;;;;;;4203926;28;20056;-75
2021/11/09 09:57:41;;;;;;;16.42;4.15;;;28.70;83.00;;;;;;4201894;28;20028;-74
2021/11/09 09:59:46;;;;;;;16.08;3.80;;;28.70;83.10;;;;;;4201515;28;20045;-75
2021/11/09 10:02:11;;;;;;;12.57;4.30;;;28.70;83.10;;;;;;4201047;28;20401;-74
2021/11/09 10:04:30;;;;;;;10.30;3.97;;;28.70;83.30;;;;;;4199442;28;20045;-73
2021/11/09 10:06:45;;;;;;;8.25;4.22;;;28.70;83.50;;;;;;4186982;28;20460;-74
2021/11/09 10:09:05;;;;;;;6.50;4.25;;;28.70;84.00;;;;;;4187450;28;20052;-67
2021/11/09 10:11:29;;;;;;;10.65;4.50;;;28.60;84.40;;;;;;4202904;28;20486;-67
2021/11/09 10:13:41;;;;;;;7.75;4.82;;;28.60;84.20;;;;;;4200017;28;20162;-67
2021/11/09 10:15:54;;;;;;;8.52;4.60;;;28.60;84.20;;;;;;4199426;28;20066;-67
2021/11/09 10:18:04;;;;;;;12.60;6.85;;;28.50;84.20;;;;;;4201411;28;20075;-68
2021/11/09 10:20:19;;;;;;;10.93;6.68;;;28.40;84.20;;;;;;4204469;28;20404;-68
2021/11/09 10:22:32;;;;;;;20.42;11.00;;;28.40;84.20;;;;;;4199924;28;20039;-67
2021/11/09 10:24:37;;;;;;;16.00;11.50;;;28.30;84.30;;;;;;4197817;28;20066;-68
2021/11/09 10:26:41;;;;;;;19.45;12.15;;;28.30;84.80;;;;;;4200859;28;20044;-67
2021/11/09 10:28:46;;;;;;;20.80;12.80;;;28.40;84.80;;;;;;4202194;28;20157;-68
2021/11/09 10:30:55;;;;;;;27.92;15.25;;;28.40;85.00;;;;;;4183772;28;20411;-68
2021/11/09 10:32:59;;;;;;;29.55;16.63;;;28.40;85.20;;;;;;4198336;28;20316;-68
2021/11/09 10:35:05;;;;;;;26.25;14.25;;;28.40;85.30;;;;;;4199941;28;20140;-68
2021/11/09 10:37:30;;;;;;;23.85;11.68;;;28.40;85.20;;;;;;4197713;28;20547;-68
2021/11/09 10:39:49;;;;;;;34.22;17.20;;;28.40;85.60;;;;;;4199174;28;20450;-70
2021/11/09 10:42:07;;;;;;;32.45;18.35;;;28.30;85.80;;;;;;4186316;28;20453;-69
2021/11/09 10:44:12;;;;;;;45.97;21.13;;;28.30;86.00;;;;;;4189857;28;20425;-69
2021/11/09 10:46:24;;;;;;;36.28;18.73;;;28.30;86.10;;;;;;4200965;28;20047;-69
2021/11/09 10:48:29;;;;;;;35.60;17.92;;;28.30;86.10;;;;;;4193434;28;20481;-70
2021/11/09 10:50:37;;;;;;;30.90;16.23;;;28.30;86.30;;;;;;4197770;28;20044;-69
2021/11/09 10:52:44;;;;;;;25.75;11.93;;;28.30;86.50;;;;;;4204780;28;20056;-69
2021/11/09 10:57:24;;;;;;;27.15;13.63;;;28.20;87.00;;;;;;4203866;28;20054;-68
2021/11/09 11:04:16;;;;;;;17.83;10.07;;;28.10;87.50;;;;;;4198686;28;20048;-69
2021/11/09 11:06:30;;;;;;;17.35;9.45;;;28.10;87.60;;;;;;4199704;28;20464;-68
2021/11/09 11:08:35;;;;;;;15.77;9.88;;;28.10;87.70;;;;;;4195372;28;20060;-68
2021/11/09 11:10:39;;;;;;;15.45;10.02;;;28.10;88.00;;;;;;4202839;28;20135;-70
2021/11/09 11:12:44;;;;;;;30.80;16.95;;;28.10;88.30;;;;;;4179733;28;20095;-67
2021/11/09 11:14:48;;;;;;;43.33;21.02;;;28.10;88.50;;;;;;4200801;28;20132;-67
2021/11/09 11:17:02;;;;;;;42.03;22.40;;;28.00;88.80;;;;;;4201199;28;20083;-68
2021/11/09 11:19:07;;;;;;;42.90;22.55;;;28.00;89.20;;;;;;4159617;28;20704;-68
2021/11/09 11:21:14;;;;;;;39.92;21.33;;;28.00;89.70;;;;;;4194677;28;20125;-67
2021/11/09 11:23:18;;;;;;;42.97;21.80;;;27.90;89.70;;;;;;4208537;28;20067;-67
2021/11/09 11:25:22;;;;;;;44.92;20.98;;;27.90;89.80;;;;;;4205121;28;20044;-67
2021/11/09 11:27:30;;;;;;;41.17;20.27;;;27.90;89.90;;;;;;4195909;28;20048;-68
2021/11/09 11:29:36;;;;;;;37.47;19.67;;;27.90;89.90;;;;;;4205136;28;20552;-67
2021/11/09 11:31:40;;;;;;;36.95;18.90;;;27.90;90.00;;;;;;4189704;28;20044;-66
2021/11/09 11:33:45;;;;;;;40.72;19.05;;;27.90;90.20;;;;;;4197977;28;20171;-68
2021/11/09 11:35:50;;;;;;;31.13;16.15;;;27.90;90.30;;;;;;4203988;28;20495;-68
2021/11/09 11:37:55;;;;;;;24.20;14.43;;;27.80;90.30;;;;;;4198454;28;20040;-68
2021/11/09 11:40:03;;;;;;;23.58;12.85;;;27.80;90.30;;;;;;4202362;28;20040;-68
2021/11/09 11:42:13;;;;;;;25.23;11.52;;;27.80;90.30;;;;;;4166222;28;20435;-68
2021/11/09 11:44:22;;;;;;;22.17;11.18;;;27.80;90.40;;;;;;4203732;28;20032;-66
2021/11/09 11:46:47;;;;;;;21.80;11.68;;;27.80;90.50;;;;;;4200378;28;20056;-67
2021/11/09 11:49:09;;;;;;;23.15;11.65;;;27.70;90.60;;;;;;4200085;28;20097;-66
2021/11/09 11:51:18;;;;;;;23.08;11.00;;;27.80;90.60;;;;;;4200125;28;20533;-67
2021/11/09 11:53:39;;;;;;;20.17;10.77;;;27.70;90.60;;;;;;4203100;28;20175;-67
2021/11/09 11:55:45;;;;;;;22.05;11.05;;;27.70;90.70;;;;;;4202357;28;20040;-68
2021/11/09 11:57:55;;;;;;;17.30;10.95;;;27.70;90.70;;;;;;4173052;28;20053;-68
2021/11/09 11:59:59;;;;;;;20.90;11.27;;;27.70;90.80;;;;;;4182741;28;20115;-68
2021/11/09 12:02:09;;;;;;;18.60;10.98;;;27.70;90.80;;;;;;4187685;28;20044;-66
2021/11/09 12:04:40;;;;;;;20.80;12.43;;;27.60;90.80;;;;;;4197792;28;20090;-68
2021/11/09 12:06:51;;;;;;;19.05;11.77;;;27.60;90.80;;;;;;4202142;28;20040;-68
2021/11/09 12:08:58;;;;;;;18.65;10.93;;;27.50;91.00;;;;;;4200878;28;20048;-69
2021/11/09 12:11:03;;;;;;;19.77;10.85;;;27.50;91.00;;;;;;4168988;28;20045;-68
2021/11/09 12:13:10;;;;;;;16.58;10.25;;;27.60;91.10;;;;;;4203297;28;20051;-68
2021/11/09 12:15:16;;;;;;;18.42;10.45;;;27.60;91.00;;;;;;4200029;28;20505;-69
2021/11/09 12:17:42;;;;;;;15.48;9.82;;;27.50;91.00;;;;;;4204046;28;20126;-69
2021/11/09 12:19:50;;;;;;;20.42;10.02;;;27.50;90.90;;;;;;4203225;28;20558;-69
2021/11/09 12:22:15;;;;;;;15.98;10.05;;;27.50;91.00;;;;;;4185130;28;20053;-69
2021/11/09 12:24:22;;;;;;;20.73;10.35;;;27.50;91.00;;;;;;4185370;28;20537;-68
2021/11/09 12:26:58;;;;;;;16.17;9.68;;;27.50;91.00;;;;;;4204253;28;20055;-69
2021/11/09 12:29:02;;;;;;;16.40;9.68;;;27.50;91.00;;;;;;4198717;28;20093;-69
2021/11/09 12:31:15;;;;;;;14.35;9.05;;;27.50;91.00;;;;;;4201559;28;20566;-69
2021/11/09 12:33:36;;;;;;;15.38;9.50;;;27.50;91.00;;;;;;4203100;28;20532;-68
2021/11/09 12:36:11;;;;;;;15.00;9.00;;;27.50;91.00;;;;;;4170791;28;20069;-69
2021/11/09 12:38:30;;;;;;;13.98;8.90;;;27.50;91.00;;;;;;4201832;28;20093;-68
2021/11/09 12:40:57;;;;;;;17.17;8.75;;;27.40;91.10;;;;;;4206509;28;20180;-69
2021/11/09 12:43:20;;;;;;;15.10;9.15;;;27.50;91.10;;;;;;4204053;28;20141;-68
2021/11/09 12:45:30;;;;;;;13.82;9.57;;;27.40;91.10;;;;;;4173539;28;20049;-67
2021/11/09 12:47:36;;;;;;;15.85;9.38;;;27.40;91.20;;;;;;4202989;28;20496;-69
2021/11/09 12:49:43;;;;;;;18.00;9.48;;;27.40;91.10;;;;;;4204404;28;20144;-68
2021/11/09 12:51:50;;;;;;;17.27;8.90;;;27.30;91.30;;;;;;4185912;28;20079;-66
2021/11/09 12:53:55;;;;;;;17.48;9.50;;;27.30;91.30;;;;;;4182212;28;20137;-67
2021/11/09 12:56:19;;;;;;;13.48;8.80;;;27.30;91.40;;;;;;4201003;28;20402;-67
2021/11/09 12:58:25;;;;;;;14.90;9.85;;;27.30;91.40;;;;;;4193999;28;20052;-68
2021/11/09 13:00:38;;;;;;;20.42;10.20;;;27.30;91.50;;;;;;4200500;28;20036;-67
2021/11/09 13:02:50;;;;;;;18.60;10.63;;;27.30;91.50;;;;;;4184352;28;20129;-68
2021/11/09 13:05:07;;;;;;;18.45;10.25;;;27.30;91.50;;;;;;4201782;28;20033;-67
2021/11/09 13:09:28;;;;;;;;;;;27.30;91.50;;;;;;4200398;28;20062;-67
2021/11/09 13:11:40;;;;;;;18.58;9.93;;;27.30;91.50;;;;;;4201491;28;19947;-67
2021/11/09 13:13:46;;;;;;;21.15;10.27;;;27.30;91.60;;;;;;4202997;28;20052;-68
2021/11/09 13:15:51;;;;;;;14.50;10.07;;;27.30;91.50;;;;;;4183951;28;20049;-67
2021/11/09 13:18:04;;;;;;;16.77;9.73;;;27.30;91.60;;;;;;4182581;28;20081;-68
2021/11/09 13:20:21;;;;;;;16.10;9.88;;;27.20;91.80;;;;;;4200879;28;20146;-69
2021/11/09 13:22:29;;;;;;;14.13;10.13;;;27.10;92.00;;;;;;4205315;28;20486;-69